PWSweather.com
Personal Weather Stations
Station Observations
KCTHAMDEN
Dunbar Hill, Hamden, CT 06514

Dunbar HillHamden, CT 06514

Lat: 41.365437, Lon: -72.956532

Elevation: 200

Station Type: Davis Vantage Pro2+

www.hamdenweather.com

High Low Average
Temperature 46.7°F8.2°C 22.4°F-5.3°C 34.3°F1.3°C
Dew Point 20.7°F-6.3°C 13.0°F-10.6°C 16.4°F-8.7°C
Winds 2.8 mph 4.5 kmh Calm Calm Calm SSECalm SSE
Wind Gusts 13.0 mph20.9 kmh -- 1.0 mph1.6 kmh
Humidity 76% 28% 50%
Pressure 29.88 in1011.9 mb 29.63 in1003.4 mb -
Precipitation 0.00 in0.0 mm - -
Hour Temp Dew Point Humidity Winds Wind Gusts Pressure Precip Precip Rate Daily Precip Total
12:00 AM 27.9°F-2.3°C 14.2°F-9.9°C 56% Calm Calm 1.0 mph1.6 kmh 29.87 in1011.5 mb - 0.00 in0.0 mm 0.00 in0.0 mm
12:15 AM 27.8°F-2.3°C 14.1°F-9.9°C 56% Calm Calm -- 29.87 in1011.5 mb - 0.00 in0.0 mm 0.00 in0.0 mm
12:30 AM 27.8°F-2.3°C 14.5°F-9.7°C 57% Calm Calm -- 29.87 in1011.5 mb - 0.00 in0.0 mm 0.00 in0.0 mm
12:45 AM 27.5°F-2.5°C 14.6°F-9.7°C 58% Calm Calm -- 29.88 in1011.9 mb - 0.00 in0.0 mm 0.00 in0.0 mm
01:00 AM 27.1°F-2.7°C 14.2°F-9.9°C 58% Calm Calm -- 29.88 in1011.9 mb - 0.00 in0.0 mm 0.00 in0.0 mm
01:15 AM 26.9°F-2.8°C 14.5°F-9.7°C 59% Calm Calm -- 29.88 in1011.9 mb - 0.00 in0.0 mm 0.00 in0.0 mm
01:30 AM 26.8°F-2.9°C 14.4°F-9.8°C 59% 0.1 mph SSW0.2 kmh SSW -- 29.88 in1011.9 mb - 0.00 in0.0 mm 0.00 in0.0 mm
01:45 AM 26.7°F-2.9°C 14.3°F-9.8°C 59% Calm Calm -- 29.88 in1011.9 mb - 0.00 in0.0 mm 0.00 in0.0 mm
02:00 AM 26.6°F-3.0°C 14.2°F-9.9°C 59% Calm Calm -- 29.88 in1011.9 mb - 0.00 in0.0 mm 0.00 in0.0 mm
02:15 AM 26.5°F-3.1°C 14.1°F-9.9°C 59% Calm Calm -- 29.88 in1011.9 mb - 0.00 in0.0 mm 0.00 in0.0 mm
02:45 AM 25.9°F-3.4°C 14.3°F-9.8°C 61% Calm Calm -- 29.87 in1011.5 mb - 0.00 in0.0 mm 0.00 in0.0 mm
03:00 AM 25.6°F-3.6°C 14.7°F-9.6°C 63% Calm Calm -- 29.87 in1011.5 mb - 0.00 in0.0 mm 0.00 in0.0 mm
03:15 AM 25.2°F-3.8°C 14.7°F-9.6°C 64% Calm Calm -- 29.86 in1011.2 mb - 0.00 in0.0 mm 0.00 in0.0 mm
03:30 AM 24.8°F-4.0°C 14.7°F-9.6°C 65% Calm Calm -- 29.86 in1011.2 mb - 0.00 in0.0 mm 0.00 in0.0 mm
03:45 AM 24.3°F-4.3°C 14.6°F-9.7°C 66% Calm Calm -- 29.85 in1010.8 mb - 0.00 in0.0 mm 0.00 in0.0 mm
04:00 AM 23.9°F-4.5°C 14.5°F-9.7°C 67% Calm Calm -- 29.85 in1010.8 mb - 0.00 in0.0 mm 0.00 in0.0 mm
04:15 AM 23.5°F-4.7°C 14.8°F-9.6°C 69% Calm Calm -- 29.85 in1010.8 mb - 0.00 in0.0 mm 0.00 in0.0 mm
04:30 AM 23.2°F-4.9°C 15.2°F-9.3°C 71% Calm Calm -- 29.85 in1010.8 mb - 0.00 in0.0 mm 0.00 in0.0 mm
04:45 AM 22.8°F-5.1°C 15.1°F-9.4°C 72% Calm Calm -- 29.86 in1011.2 mb - 0.00 in0.0 mm 0.00 in0.0 mm
05:00 AM 22.5°F-5.3°C 14.8°F-9.6°C 72% Calm Calm -- 29.86 in1011.2 mb - 0.00 in0.0 mm 0.00 in0.0 mm
05:15 AM 22.4°F-5.3°C 15.4°F-9.2°C 74% Calm Calm -- 29.86 in1011.2 mb - 0.00 in0.0 mm 0.00 in0.0 mm
05:30 AM 22.7°F-5.2°C 16.3°F-8.7°C 76% 0.1 mph SSW0.2 kmh SSW 2.0 mph3.2 kmh 29.86 in1011.2 mb - 0.00 in0.0 mm 0.00 in0.0 mm
05:45 AM 23.3°F-4.8°C 16.5°F-8.6°C 75% Calm Calm -- 29.86 in1011.2 mb - 0.00 in0.0 mm 0.00 in0.0 mm
06:00 AM 23.7°F-4.6°C 16.9°F-8.4°C 75% Calm Calm -- 29.86 in1011.2 mb - 0.00 in0.0 mm 0.00 in0.0 mm
06:15 AM 23.9°F-4.5°C 16.5°F-8.6°C 73% Calm Calm -- 29.85 in1010.8 mb - 0.00 in0.0 mm 0.00 in0.0 mm
06:30 AM 24.0°F-4.4°C 16.6°F-8.6°C 73% Calm Calm -- 29.85 in1010.8 mb - 0.00 in0.0 mm 0.00 in0.0 mm
06:45 AM 24.1°F-4.4°C 16.7°F-8.5°C 73% Calm Calm -- 29.85 in1010.8 mb - 0.00 in0.0 mm 0.00 in0.0 mm
07:00 AM 24.0°F-4.4°C 16.6°F-8.6°C 73% Calm Calm -- 29.85 in1010.8 mb - 0.00 in0.0 mm 0.00 in0.0 mm
07:15 AM 23.8°F-4.6°C 16.4°F-8.7°C 73% Calm Calm -- 29.85 in1010.8 mb - 0.00 in0.0 mm 0.00 in0.0 mm
07:30 AM 23.8°F-4.6°C 16.7°F-8.5°C 74% Calm Calm -- 29.85 in1010.8 mb - 0.00 in0.0 mm 0.00 in0.0 mm
07:45 AM 24.7°F-4.1°C 17.3°F-8.2°C 73% Calm Calm -- 29.85 in1010.8 mb - 0.00 in0.0 mm 0.00 in0.0 mm
08:00 AM 26.2°F-3.2°C 17.7°F-7.9°C 70% Calm Calm -- 29.85 in1010.8 mb - 0.00 in0.0 mm 0.00 in0.0 mm
08:15 AM 27.3°F-2.6°C 18.1°F-7.7°C 68% Calm Calm -- 29.84 in1010.5 mb - 0.00 in0.0 mm 0.00 in0.0 mm
08:30 AM 28.5°F-1.9°C 18.6°F-7.4°C 66% Calm Calm 1.0 mph1.6 kmh 29.85 in1010.8 mb - 0.00 in0.0 mm 0.00 in0.0 mm
08:45 AM 29.8°F-1.2°C 18.7°F-7.4°C 63% Calm Calm -- 29.84 in1010.5 mb - 0.00 in0.0 mm 0.00 in0.0 mm
09:00 AM 30.8°F-0.7°C 19.3°F-7.1°C 62% Calm Calm -- 29.84 in1010.5 mb - 0.00 in0.0 mm 0.00 in0.0 mm
09:15 AM 31.4°F-0.3°C 18.8°F-7.3°C 59% Calm Calm -- 29.84 in1010.5 mb - 0.00 in0.0 mm 0.00 in0.0 mm
09:30 AM 32.1°F0.1°C 18.6°F-7.4°C 57% Calm Calm -- 29.83 in1010.2 mb - 0.00 in0.0 mm 0.00 in0.0 mm
09:45 AM 32.6°F0.3°C 19.1°F-7.2°C 57% 0.1 mph SW0.2 kmh SW 1.0 mph1.6 kmh 29.82 in1009.8 mb - 0.00 in0.0 mm 0.00 in0.0 mm
10:00 AM 34.1°F1.2°C 19.2°F-7.1°C 54% 0.2 mph S0.3 kmh S 3.0 mph4.8 kmh 29.81 in1009.5 mb - 0.00 in0.0 mm 0.00 in0.0 mm
10:15 AM 34.9°F1.6°C 19.0°F-7.2°C 52% Calm Calm -- 29.80 in1009.1 mb - 0.00 in0.0 mm 0.00 in0.0 mm
10:30 AM 35.6°F2.0°C 19.7°F-6.8°C 52% 0.2 mph N0.3 kmh N 2.0 mph3.2 kmh 29.79 in1008.8 mb - 0.00 in0.0 mm 0.00 in0.0 mm
10:45 AM 36.0°F2.2°C 18.2°F-7.7°C 48% 0.1 mph SW0.2 kmh SW -- 29.78 in1008.5 mb - 0.00 in0.0 mm 0.00 in0.0 mm
11:00 AM 36.5°F2.5°C 18.2°F-7.7°C 47% 0.7 mph SW1.1 kmh SW -- 29.77 in1008.1 mb - 0.00 in0.0 mm 0.00 in0.0 mm
11:15 AM 37.1°F2.8°C 18.2°F-7.7°C 46% 1.6 mph SSE2.6 kmh SSE 1.0 mph1.6 kmh 29.75 in1007.5 mb - 0.00 in0.0 mm 0.00 in0.0 mm
11:30 AM 38.2°F3.4°C 20.7°F-6.3°C 49% 0.2 mph S0.3 kmh S 3.0 mph4.8 kmh 29.74 in1007.1 mb - 0.00 in0.0 mm 0.00 in0.0 mm
11:45 AM 38.8°F3.8°C 19.3°F-7.1°C 45% 0.3 mph NNE0.5 kmh NNE 1.0 mph1.6 kmh 29.73 in1006.8 mb - 0.00 in0.0 mm 0.00 in0.0 mm
12:00 PM 39.3°F4.1°C 19.2°F-7.1°C 44% Calm Calm -- 29.72 in1006.4 mb - 0.00 in0.0 mm 0.00 in0.0 mm
12:15 PM 39.0°F3.9°C 19.4°F-7.0°C 45% 0.1 mph WNW0.2 kmh WNW 3.0 mph4.8 kmh 29.72 in1006.4 mb - 0.00 in0.0 mm 0.00 in0.0 mm
12:30 PM 39.3°F4.1°C 18.6°F-7.4°C 43% 0.4 mph S0.6 kmh S 1.0 mph1.6 kmh 29.71 in1006.1 mb - 0.00 in0.0 mm 0.00 in0.0 mm
12:45 PM 40.7°F4.8°C 18.8°F-7.3°C 41% 0.4 mph S0.6 kmh S 11.0 mph17.7 kmh 29.71 in1006.1 mb - 0.00 in0.0 mm 0.00 in0.0 mm
01:00 PM 41.0°F5.0°C 19.1°F-7.2°C 41% Calm Calm 3.0 mph4.8 kmh 29.70 in1005.8 mb - 0.00 in0.0 mm 0.00 in0.0 mm
01:15 PM 42.0°F5.6°C 19.4°F-7.0°C 40% 0.2 mph SE0.3 kmh SE 1.0 mph1.6 kmh 29.69 in1005.4 mb - 0.00 in0.0 mm 0.00 in0.0 mm
01:30 PM 42.0°F5.6°C 18.2°F-7.7°C 38% 0.1 mph S0.2 kmh S -- 29.69 in1005.4 mb - 0.00 in0.0 mm 0.00 in0.0 mm
01:45 PM 43.1°F6.2°C 16.6°F-8.6°C 34% Calm Calm -- 29.67 in1004.7 mb - 0.00 in0.0 mm 0.00 in0.0 mm
02:00 PM 43.6°F6.4°C 17.0°F-8.3°C 34% 0.6 mph S1.0 kmh S 7.0 mph11.3 kmh 29.67 in1004.7 mb - 0.00 in0.0 mm 0.00 in0.0 mm
02:15 PM 43.4°F6.3°C 15.5°F-9.2°C 32% 0.9 mph NE1.4 kmh NE 9.0 mph14.5 kmh 29.66 in1004.4 mb - 0.00 in0.0 mm 0.00 in0.0 mm
02:30 PM 43.7°F6.5°C 15.8°F-9.0°C 32% 2.8 mph S4.5 kmh S 9.0 mph14.5 kmh 29.66 in1004.4 mb - 0.00 in0.0 mm 0.00 in0.0 mm
02:45 PM 44.2°F6.8°C 14.7°F-9.6°C 30% 1.6 mph SW2.6 kmh SW 10.0 mph16.1 kmh 29.66 in1004.4 mb - 0.00 in0.0 mm 0.00 in0.0 mm
03:00 PM 45.1°F7.3°C 17.7°F-7.9°C 33% 0.8 mph E1.3 kmh E 13.0 mph20.9 kmh 29.65 in1004.1 mb - 0.00 in0.0 mm 0.00 in0.0 mm
03:15 PM 45.4°F7.4°C 15.7°F-9.1°C 30% 0.1 mph SW0.2 kmh SW 1.0 mph1.6 kmh 29.64 in1003.7 mb - 0.00 in0.0 mm 0.00 in0.0 mm
03:30 PM 45.9°F7.7°C 15.4°F-9.2°C 29% Calm Calm -- 29.64 in1003.7 mb - 0.00 in0.0 mm 0.00 in0.0 mm
03:45 PM 46.1°F7.8°C 15.6°F-9.1°C 29% Calm Calm 1.0 mph1.6 kmh 29.64 in1003.7 mb - 0.00 in0.0 mm 0.00 in0.0 mm
04:00 PM 46.1°F7.8°C 15.6°F-9.1°C 29% 0.2 mph SSE0.3 kmh SSE 1.0 mph1.6 kmh 29.64 in1003.7 mb - 0.00 in0.0 mm 0.00 in0.0 mm
04:15 PM 46.5°F8.1°C 15.9°F-8.9°C 29% Calm Calm -- 29.63 in1003.4 mb - 0.00 in0.0 mm 0.00 in0.0 mm
04:30 PM 46.7°F8.2°C 15.3°F-9.3°C 28% Calm Calm -- 29.63 in1003.4 mb - 0.00 in0.0 mm 0.00 in0.0 mm
04:45 PM 46.6°F8.1°C 15.2°F-9.3°C 28% Calm Calm 1.0 mph1.6 kmh 29.63 in1003.4 mb - 0.00 in0.0 mm 0.00 in0.0 mm
05:00 PM 46.4°F8.0°C 15.0°F-9.4°C 28% Calm Calm -- 29.63 in1003.4 mb - 0.00 in0.0 mm 0.00 in0.0 mm
05:15 PM 46.0°F7.8°C 14.7°F-9.6°C 28% 0.1 mph E0.2 kmh E 1.0 mph1.6 kmh 29.64 in1003.7 mb - 0.00 in0.0 mm 0.00 in0.0 mm
05:30 PM 46.1°F7.8°C 15.5°F-9.2°C 29% Calm Calm -- 29.64 in1003.7 mb - 0.00 in0.0 mm 0.00 in0.0 mm
05:45 PM 45.3°F7.4°C 14.1°F-9.9°C 28% 0.1 mph N0.2 kmh N 2.0 mph3.2 kmh 29.64 in1003.7 mb - 0.00 in0.0 mm 0.00 in0.0 mm
06:00 PM 44.8°F7.1°C 15.2°F-9.3°C 30% Calm Calm -- 29.64 in1003.7 mb - 0.00 in0.0 mm 0.00 in0.0 mm
06:15 PM 44.6°F7.0°C 15.0°F-9.4°C 30% Calm Calm -- 29.65 in1004.1 mb - 0.00 in0.0 mm 0.00 in0.0 mm
06:30 PM 44.5°F6.9°C 15.7°F-9.1°C 31% 0.1 mph ENE0.2 kmh ENE 2.0 mph3.2 kmh 29.67 in1004.7 mb - 0.00 in0.0 mm 0.00 in0.0 mm
06:45 PM 43.3°F6.3°C 16.1°F-8.8°C 33% 0.1 mph WSW0.2 kmh WSW -- 29.68 in1005.1 mb - 0.00 in0.0 mm 0.00 in0.0 mm
07:00 PM 42.2°F5.7°C 15.8°F-9.0°C 34% 0.1 mph N0.2 kmh N 2.0 mph3.2 kmh 29.69 in1005.4 mb - 0.00 in0.0 mm 0.00 in0.0 mm
07:15 PM 41.4°F5.2°C 17.1°F-8.3°C 37% Calm Calm -- 29.71 in1006.1 mb - 0.00 in0.0 mm 0.00 in0.0 mm
07:30 PM 40.4°F4.7°C 17.4°F-8.1°C 39% Calm Calm -- 29.72 in1006.4 mb - 0.00 in0.0 mm 0.00 in0.0 mm
07:45 PM 39.6°F4.2°C 18.3°F-7.6°C 42% Calm Calm -- 29.73 in1006.8 mb - 0.00 in0.0 mm 0.00 in0.0 mm
08:00 PM 38.6°F3.7°C 18.6°F-7.4°C 44% Calm Calm -- 29.75 in1007.5 mb - 0.00 in0.0 mm 0.00 in0.0 mm
08:15 PM 37.7°F3.2°C 18.3°F-7.6°C 45% 0.1 mph W0.2 kmh W 2.0 mph3.2 kmh 29.76 in1007.8 mb - 0.00 in0.0 mm 0.00 in0.0 mm
08:30 PM 37.2°F2.9°C 18.3°F-7.6°C 46% Calm Calm 1.0 mph1.6 kmh 29.76 in1007.8 mb - 0.00 in0.0 mm 0.00 in0.0 mm
08:45 PM 36.6°F2.6°C 17.2°F-8.2°C 45% Calm Calm -- 29.77 in1008.1 mb - 0.00 in0.0 mm 0.00 in0.0 mm
09:00 PM 36.1°F2.3°C 16.3°F-8.7°C 44% Calm Calm 1.0 mph1.6 kmh 29.77 in1008.1 mb - 0.00 in0.0 mm 0.00 in0.0 mm
09:15 PM 35.7°F2.1°C 15.9°F-8.9°C 44% Calm Calm -- 29.78 in1008.5 mb - 0.00 in0.0 mm 0.00 in0.0 mm
09:30 PM 35.1°F1.7°C 15.4°F-9.2°C 44% Calm Calm -- 29.79 in1008.8 mb - 0.00 in0.0 mm 0.00 in0.0 mm
09:45 PM 34.9°F1.6°C 15.1°F-9.4°C 44% Calm Calm -- 29.79 in1008.8 mb - 0.00 in0.0 mm 0.00 in0.0 mm
10:00 PM 34.3°F1.3°C 15.1°F-9.4°C 45% Calm Calm -- 29.80 in1009.1 mb - 0.00 in0.0 mm 0.00 in0.0 mm
10:15 PM 33.8°F1.0°C 15.2°F-9.3°C 46% Calm Calm -- 29.81 in1009.5 mb - 0.00 in0.0 mm 0.00 in0.0 mm
10:30 PM 33.4°F0.8°C 15.3°F-9.3°C 47% 0.1 mph NNE0.2 kmh NNE 1.0 mph1.6 kmh 29.81 in1009.5 mb - 0.00 in0.0 mm 0.00 in0.0 mm
10:45 PM 33.1°F0.6°C 15.5°F-9.2°C 48% Calm Calm -- 29.82 in1009.8 mb - 0.00 in0.0 mm 0.00 in0.0 mm
11:00 PM 32.5°F0.3°C 15.9°F-8.9°C 50% Calm Calm -- 29.82 in1009.8 mb - 0.00 in0.0 mm 0.00 in0.0 mm
11:15 PM 31.8°F-0.1°C 15.7°F-9.1°C 51% Calm Calm -- 29.82 in1009.8 mb - 0.00 in0.0 mm 0.00 in0.0 mm
11:30 PM 31.1°F-0.5°C 15.1°F-9.4°C 51% Calm Calm -- 29.82 in1009.8 mb - 0.00 in0.0 mm 0.00 in0.0 mm
11:45 PM 30.5°F-0.8°C 14.5°F-9.7°C 51% Calm Calm -- 29.82 in1009.8 mb - 0.00 in0.0 mm 0.00 in0.0 mm